sensor_id;sensor_type;location;lat;lon;timestamp;pressure;altitude;pressure_sealevel;temperature;humidity
84511;BME280;74730;43.858;18.424;2024-02-04T00:01:49;96146.34;;;3.18;71.04
84511;BME280;74730;43.858;18.424;2024-02-04T00:04:15;96150.03;;;3.25;70.45
84511;BME280;74730;43.858;18.424;2024-02-04T00:06:40;96145.69;;;3.26;70.97
84511;BME280;74730;43.858;18.424;2024-02-04T00:09:06;96143.13;;;3.16;71.33
84511;BME280;74730;43.858;18.424;2024-02-04T00:11:32;96144.56;;;3.09;71.10
84511;BME280;74730;43.858;18.424;2024-02-04T00:13:57;96145.78;;;3.05;71.17
84511;BME280;74730;43.858;18.424;2024-02-04T00:16:23;96147.63;;;3.03;71.21
84511;BME280;74730;43.858;18.424;2024-02-04T00:18:48;96154.22;;;3.05;71.47
84511;BME280;74730;43.858;18.424;2024-02-04T00:21:14;96151.56;;;3.07;71.14
84511;BME280;74730;43.858;18.424;2024-02-04T00:23:39;96159.22;;;3.07;70.61
84511;BME280;74730;43.858;18.424;2024-02-04T00:26:05;96152.50;;;3.06;70.36
84511;BME280;74730;43.858;18.424;2024-02-04T00:28:30;96155.16;;;3.04;70.51
84511;BME280;74730;43.858;18.424;2024-02-04T00:30:56;96155.28;;;3.03;70.69
84511;BME280;74730;43.858;18.424;2024-02-04T00:33:24;96160.25;;;3.04;70.86
84511;BME280;74730;43.858;18.424;2024-02-04T00:35:50;96157.97;;;3.01;70.30
84511;BME280;74730;43.858;18.424;2024-02-04T00:38:17;96159.03;;;2.99;70.16
84511;BME280;74730;43.858;18.424;2024-02-04T00:40:42;96155.81;;;2.97;70.20
84511;BME280;74730;43.858;18.424;2024-02-04T00:43:08;96150.56;;;2.98;70.29
84511;BME280;74730;43.858;18.424;2024-02-04T00:45:33;96161.72;;;2.97;70.16
84511;BME280;74730;43.858;18.424;2024-02-04T00:47:59;96158.47;;;2.95;69.96
84511;BME280;74730;43.858;18.424;2024-02-04T00:50:25;96163.56;;;2.95;69.93
84511;BME280;74730;43.858;18.424;2024-02-04T00:52:50;96150.28;;;2.92;70.41
84511;BME280;74730;43.858;18.424;2024-02-04T00:55:19;96154.84;;;2.88;70.91
84511;BME280;74730;43.858;18.424;2024-02-04T00:57:45;96160.53;;;2.81;70.58
84511;BME280;74730;43.858;18.424;2024-02-04T01:00:11;96157.31;;;2.79;70.49
84511;BME280;74730;43.858;18.424;2024-02-04T01:02:39;96158.00;;;2.81;70.54
84511;BME280;74730;43.858;18.424;2024-02-04T01:05:05;96156.38;;;2.80;71.42
84511;BME280;74730;43.858;18.424;2024-02-04T01:07:30;96156.75;;;2.75;71.91
84511;BME280;74730;43.858;18.424;2024-02-04T01:09:56;96144.25;;;2.72;71.81
84511;BME280;74730;43.858;18.424;2024-02-04T01:12:22;96146.81;;;2.72;71.93
84511;BME280;74730;43.858;18.424;2024-02-04T01:14:47;96146.81;;;2.72;72.61
84511;BME280;74730;43.858;18.424;2024-02-04T01:17:13;96142.25;;;2.76;72.33
84511;BME280;74730;43.858;18.424;2024-02-04T01:19:38;96146.31;;;2.78;72.64
84511;BME280;74730;43.858;18.424;2024-02-04T01:22:04;96151.25;;;2.80;72.19
84511;BME280;74730;43.858;18.424;2024-02-04T01:24:31;96151.34;;;2.68;72.13
84511;BME280;74730;43.858;18.424;2024-02-04T01:26:57;96142.72;;;2.60;72.42
84511;BME280;74730;43.858;18.424;2024-02-04T01:29:22;96136.09;;;2.57;72.35
84511;BME280;74730;43.858;18.424;2024-02-04T01:31:48;96121.06;;;2.54;72.89
84511;BME280;74730;43.858;18.424;2024-02-04T01:34:14;96124.09;;;2.48;72.79
84511;BME280;74730;43.858;18.424;2024-02-04T01:36:39;96141.28;;;2.46;73.09
84511;BME280;74730;43.858;18.424;2024-02-04T01:39:05;96144.75;;;2.45;73.44
84511;BME280;74730;43.858;18.424;2024-02-04T01:41:30;96135.81;;;2.51;72.78
84511;BME280;74730;43.858;18.424;2024-02-04T01:43:56;96139.13;;;2.42;72.95
84511;BME280;74730;43.858;18.424;2024-02-04T01:46:22;96136.38;;;2.34;73.32
84511;BME280;74730;43.858;18.424;2024-02-04T01:48:48;96130.97;;;2.27;73.67
84511;BME280;74730;43.858;18.424;2024-02-04T01:51:17;96135.25;;;2.27;74.10
84511;BME280;74730;43.858;18.424;2024-02-04T01:53:47;96129.34;;;2.26;73.83
84511;BME280;74730;43.858;18.424;2024-02-04T01:56:14;96128.53;;;2.26;74.32
84511;BME280;74730;43.858;18.424;2024-02-04T01:58:42;96127.72;;;2.25;74.19
84511;BME280;74730;43.858;18.424;2024-02-04T02:01:09;96120.44;;;2.20;73.53
84511;BME280;74730;43.858;18.424;2024-02-04T02:03:35;96118.13;;;2.17;74.12
84511;BME280;74730;43.858;18.424;2024-02-04T02:06:01;96113.38;;;2.24;74.20
84511;BME280;74730;43.858;18.424;2024-02-04T02:08:27;96103.41;;;2.21;73.92
84511;BME280;74730;43.858;18.424;2024-02-04T02:11:08;96098.13;;;2.13;74.41
84511;BME280;74730;43.858;18.424;2024-02-04T02:13:37;96099.41;;;2.07;74.59
84511;BME280;74730;43.858;18.424;2024-02-04T02:16:11;96101.16;;;2.07;74.79
84511;BME280;74730;43.858;18.424;2024-02-04T02:18:58;96100.94;;;2.10;74.62
84511;BME280;74730;43.858;18.424;2024-02-04T02:26:47;96104.84;;;2.14;74.97
84511;BME280;74730;43.858;18.424;2024-02-04T02:29:13;96092.91;;;2.14;74.25
84511;BME280;74730;43.858;18.424;2024-02-04T02:31:40;96097.19;;;2.14;74.14
84511;BME280;74730;43.858;18.424;2024-02-04T02:34:13;96093.72;;;2.15;74.21
84511;BME280;74730;43.858;18.424;2024-02-04T02:36:47;96099.75;;;2.14;74.83
84511;BME280;74730;43.858;18.424;2024-02-04T02:39:19;96093.84;;;2.13;74.69
84511;BME280;74730;43.858;18.424;2024-02-04T02:41:49;96085.50;;;2.11;74.78
84511;BME280;74730;43.858;18.424;2024-02-04T02:44:15;96092.91;;;2.14;74.72
84511;BME280;74730;43.858;18.424;2024-02-04T02:46:41;96089.56;;;2.14;74.82
84511;BME280;74730;43.858;18.424;2024-02-04T02:49:08;96088.19;;;2.10;74.84
84511;BME280;74730;43.858;18.424;2024-02-04T02:51:33;96089.41;;;2.15;74.19
84511;BME280;74730;43.858;18.424;2024-02-04T02:53:59;96086.56;;;2.09;74.72
84511;BME280;74730;43.858;18.424;2024-02-04T02:56:24;96083.69;;;2.02;75.01
84511;BME280;74730;43.858;18.424;2024-02-04T02:58:50;96078.84;;;1.99;75.48
84511;BME280;74730;43.858;18.424;2024-02-04T03:01:16;96073.88;;;1.98;75.41
84511;BME280;74730;43.858;18.424;2024-02-04T03:03:41;96073.06;;;1.97;75.01
84511;BME280;74730;43.858;18.424;2024-02-04T03:06:07;96064.38;;;2.00;75.18
84511;BME280;74730;43.858;18.424;2024-02-04T03:08:33;96071.75;;;2.03;75.12
84511;BME280;74730;43.858;18.424;2024-02-04T03:10:59;96071.91;;;2.01;75.01
84511;BME280;74730;43.858;18.424;2024-02-04T03:13:24;96064.56;;;2.08;75.07
84511;BME280;74730;43.858;18.424;2024-02-04T03:15:50;96071.56;;;2.15;74.33
84511;BME280;74730;43.858;18.424;2024-02-04T03:18:16;96062.06;;;2.17;74.80
84511;BME280;74730;43.858;18.424;2024-02-04T03:20:41;96079.59;;;2.11;74.53
84511;BME280;74730;43.858;18.424;2024-02-04T03:23:07;96076.63;;;2.06;75.10
84511;BME280;74730;43.858;18.424;2024-02-04T03:25:33;96078.81;;;2.10;74.47
84511;BME280;74730;43.858;18.424;2024-02-04T03:27:58;96067.09;;;2.08;74.38
84511;BME280;74730;43.858;18.424;2024-02-04T03:30:24;96073.38;;;2.04;74.75
84511;BME280;74730;43.858;18.424;2024-02-04T03:32:49;96071.66;;;2.04;74.46
84511;BME280;74730;43.858;18.424;2024-02-04T03:35:15;96071.75;;;2.03;74.64
84511;BME280;74730;43.858;18.424;2024-02-04T03:37:41;96074.50;;;2.11;74.48
84511;BME280;74730;43.858;18.424;2024-02-04T03:40:07;96076.13;;;2.12;75.00
84511;BME280;74730;43.858;18.424;2024-02-04T03:42:34;96064.19;;;2.12;74.96
84511;BME280;74730;43.858;18.424;2024-02-04T03:45:00;96074.25;;;2.14;74.88
84511;BME280;74730;43.858;18.424;2024-02-04T03:47:28;96078.44;;;2.15;74.32
84511;BME280;74730;43.858;18.424;2024-02-04T03:49:54;96086.63;;;2.18;74.26
84511;BME280;74730;43.858;18.424;2024-02-04T03:52:19;96083.16;;;2.19;73.86
84511;BME280;74730;43.858;18.424;2024-02-04T03:54:45;96083.81;;;2.21;74.60
84511;BME280;74730;43.858;18.424;2024-02-04T03:57:11;96090.81;;;2.19;74.67
84511;BME280;74730;43.858;18.424;2024-02-04T03:59:36;96095.09;;;2.19;74.35
84511;BME280;74730;43.858;18.424;2024-02-04T04:02:02;96090.00;;;2.19;74.50
84511;BME280;74730;43.858;18.424;2024-02-04T04:04:28;96090.00;;;2.19;74.44
84511;BME280;74730;43.858;18.424;2024-02-04T04:06:53;96089.03;;;2.20;74.52
84511;BME280;74730;43.858;18.424;2024-02-04T04:09:19;96080.47;;;2.21;74.31
84511;BME280;74730;43.858;18.424;2024-02-04T04:11:44;96075.38;;;2.21;74.35
84511;BME280;74730;43.858;18.424;2024-02-04T04:14:10;96072.16;;;2.19;74.59
84511;BME280;74730;43.858;18.424;2024-02-04T04:16:35;96067.44;;;2.14;74.06
84511;BME280;74730;43.858;18.424;2024-02-04T04:19:01;96067.44;;;2.14;74.83
84511;BME280;74730;43.858;18.424;2024-02-04T04:21:27;96071.91;;;2.22;73.81
84511;BME280;74730;43.858;18.424;2024-02-04T04:23:52;96084.19;;;2.17;74.60
84511;BME280;74730;43.858;18.424;2024-02-04T04:26:18;96081.22;;;2.12;74.09
84511;BME280;74730;43.858;18.424;2024-02-04T04:28:43;96081.22;;;2.12;74.71
84511;BME280;74730;43.858;18.424;2024-02-04T04:31:09;96073.72;;;2.10;74.35
84511;BME280;74730;43.858;18.424;2024-02-04T04:33:36;96060.00;;;2.11;74.14
84511;BME280;74730;43.858;18.424;2024-02-04T04:36:01;96061.56;;;2.03;74.80
84511;BME280;74730;43.858;18.424;2024-02-04T04:38:27;96072.63;;;1.92;74.91
84511;BME280;74730;43.858;18.424;2024-02-04T04:40:52;96076.69;;;1.84;75.47
84511;BME280;74730;43.858;18.424;2024-02-04T04:43:18;96084.84;;;1.77;75.44
84511;BME280;74730;43.858;18.424;2024-02-04T04:45:43;96090.50;;;1.81;74.98
84511;BME280;74730;43.858;18.424;2024-02-04T04:48:09;96091.78;;;1.75;75.13
84511;BME280;74730;43.858;18.424;2024-02-04T04:50:35;96095.75;;;1.68;75.55
84511;BME280;74730;43.858;18.424;2024-02-04T04:53:01;96099.84;;;1.60;75.65
84511;BME280;74730;43.858;18.424;2024-02-04T04:55:27;96105.41;;;1.54;75.69
84511;BME280;74730;43.858;18.424;2024-02-04T04:57:52;96101.59;;;1.48;76.32
84511;BME280;74730;43.858;18.424;2024-02-04T05:00:18;96105.50;;;1.52;76.27
84511;BME280;74730;43.858;18.424;2024-02-04T05:02:44;96105.88;;;1.48;76.75
84511;BME280;74730;43.858;18.424;2024-02-04T05:05:12;96097.88;;;1.52;76.46
84511;BME280;74730;43.858;18.424;2024-02-04T05:07:38;96101.03;;;1.45;76.29
84511;BME280;74730;43.858;18.424;2024-02-04T05:10:05;96088.09;;;1.37;77.10
84511;BME280;74730;43.858;18.424;2024-02-04T05:12:32;96102.91;;;1.31;77.47
84511;BME280;74730;43.858;18.424;2024-02-04T05:14:58;96121.09;;;1.27;77.51
84511;BME280;74730;43.858;18.424;2024-02-04T05:17:23;96117.84;;;1.25;77.86
84511;BME280;74730;43.858;18.424;2024-02-04T05:19:49;96127.78;;;1.28;77.84
84511;BME280;74730;43.858;18.424;2024-02-04T05:22:14;96122.34;;;1.32;77.76
84511;BME280;74730;43.858;18.424;2024-02-04T05:24:41;96123.84;;;1.35;77.62
84511;BME280;74730;43.858;18.424;2024-02-04T05:27:06;96118.84;;;1.33;76.61
84511;BME280;74730;43.858;18.424;2024-02-04T05:29:32;96120.16;;;1.28;77.31
84511;BME280;74730;43.858;18.424;2024-02-04T05:31:57;96120.63;;;1.22;77.41
84511;BME280;74730;43.858;18.424;2024-02-04T05:34:23;96115.53;;;1.22;77.18
84511;BME280;74730;43.858;18.424;2024-02-04T05:36:48;96116.44;;;1.21;77.14
84511;BME280;74730;43.858;18.424;2024-02-04T05:39:15;96116.66;;;1.29;77.30
84511;BME280;74730;43.858;18.424;2024-02-04T05:41:41;96117.63;;;1.28;76.76
84511;BME280;74730;43.858;18.424;2024-02-04T05:44:10;96119.47;;;1.26;77.54
84511;BME280;74730;43.858;18.424;2024-02-04T05:46:36;96126.75;;;1.19;77.97
84511;BME280;74730;43.858;18.424;2024-02-04T05:49:02;96137.25;;;1.15;77.61
84511;BME280;74730;43.858;18.424;2024-02-04T05:51:28;96141.69;;;1.13;77.90
84511;BME280;74730;43.858;18.424;2024-02-04T05:53:54;96126.53;;;1.22;77.22
84511;BME280;74730;43.858;18.424;2024-02-04T05:56:20;96125.72;;;1.22;76.91
84511;BME280;74730;43.858;18.424;2024-02-04T05:58:46;96125.25;;;1.17;77.94
84511;BME280;74730;43.858;18.424;2024-02-04T06:01:12;96114.50;;;1.13;77.67
84511;BME280;74730;43.858;18.424;2024-02-04T06:03:37;96114.72;;;1.10;78.18
84511;BME280;74730;43.858;18.424;2024-02-04T06:06:03;96121.88;;;1.16;77.98
84511;BME280;74730;43.858;18.424;2024-02-04T06:08:29;96122.00;;;1.15;77.65
84511;BME280;74730;43.858;18.424;2024-02-04T06:10:55;96112.78;;;1.14;77.94
84511;BME280;74730;43.858;18.424;2024-02-04T06:13:20;96110.22;;;1.14;78.06
84511;BME280;74730;43.858;18.424;2024-02-04T06:15:46;96116.22;;;1.13;77.33
84511;BME280;74730;43.858;18.424;2024-02-04T06:18:12;96113.78;;;1.11;77.53
84511;BME280;74730;43.858;18.424;2024-02-04T06:20:37;96116.13;;;1.14;78.26
84511;BME280;74730;43.858;18.424;2024-02-04T06:23:03;96111.72;;;1.16;78.33
84511;BME280;74730;43.858;18.424;2024-02-04T06:25:29;96119.91;;;1.20;78.14
84511;BME280;74730;43.858;18.424;2024-02-04T06:27:54;96118.66;;;1.25;77.50
84511;BME280;74730;43.858;18.424;2024-02-04T06:30:20;96125.34;;;1.26;77.21
84511;BME280;74730;43.858;18.424;2024-02-04T06:32:47;96120.16;;;1.28;77.60
84511;BME280;74730;43.858;18.424;2024-02-04T06:35:13;96118.84;;;1.33;77.79
84511;BME280;74730;43.858;18.424;2024-02-04T06:37:41;96116.19;;;1.35;77.15
84511;BME280;74730;43.858;18.424;2024-02-04T06:40:07;96121.75;;;1.40;76.71
84511;BME280;74730;43.858;18.424;2024-02-04T06:42:32;96121.41;;;1.45;76.14
84511;BME280;74730;43.858;18.424;2024-02-04T06:44:58;96115.50;;;1.44;76.75
84511;BME280;74730;43.858;18.424;2024-02-04T06:47:23;96118.59;;;1.48;76.56
84511;BME280;74730;43.858;18.424;2024-02-04T06:49:49;96121.75;;;1.51;76.35
84511;BME280;74730;43.858;18.424;2024-02-04T06:52:14;96126.69;;;1.53;76.64
84511;BME280;74730;43.858;18.424;2024-02-04T06:54:40;96133.06;;;1.58;76.78
84511;BME280;74730;43.858;18.424;2024-02-04T06:57:05;96125.06;;;1.63;76.21
84511;BME280;74730;43.858;18.424;2024-02-04T06:59:31;96124.00;;;1.65;75.69
84511;BME280;74730;43.858;18.424;2024-02-04T07:01:57;96115.63;;;1.74;75.19
84511;BME280;74730;43.858;18.424;2024-02-04T07:04:22;96122.13;;;1.78;75.88
84511;BME280;74730;43.858;18.424;2024-02-04T07:06:50;96117.47;;;1.84;75.48
84511;BME280;74730;43.858;18.424;2024-02-04T07:09:16;96116.16;;;1.89;74.89
84511;BME280;74730;43.858;18.424;2024-02-04T07:11:41;96121.09;;;2.02;73.97
84511;BME280;74730;43.858;18.424;2024-02-04T07:14:07;96135.78;;;2.09;74.04
84511;BME280;74730;43.858;18.424;2024-02-04T07:16:33;96131.81;;;2.16;73.52
84511;BME280;74730;43.858;18.424;2024-02-04T07:18:59;96132.50;;;2.18;73.49
84511;BME280;74730;43.858;18.424;2024-02-04T07:21:25;96139.09;;;2.21;73.63
84511;BME280;74730;43.858;18.424;2024-02-04T07:23:50;96137.34;;;2.21;73.64
84511;BME280;74730;43.858;18.424;2024-02-04T07:26:16;96131.66;;;2.29;73.39
84511;BME280;74730;43.858;18.424;2024-02-04T07:28:41;96126.03;;;2.35;72.95
84511;BME280;74730;43.858;18.424;2024-02-04T07:31:07;96127.63;;;2.47;73.27
84511;BME280;74730;43.858;18.424;2024-02-04T07:33:33;96123.63;;;2.54;72.84
84511;BME280;74730;43.858;18.424;2024-02-04T07:35:58;96120.44;;;2.62;72.43
84511;BME280;74730;43.858;18.424;2024-02-04T07:38:24;96125.47;;;2.73;72.59
84511;BME280;74730;43.858;18.424;2024-02-04T07:40:49;96136.53;;;2.83;72.08
84511;BME280;74730;43.858;18.424;2024-02-04T07:43:15;96131.22;;;2.96;71.56
84511;BME280;74730;43.858;18.424;2024-02-04T07:45:40;96134.38;;;3.09;71.12
84511;BME280;74730;43.858;18.424;2024-02-04T07:48:07;96141.13;;;3.20;70.75
84511;BME280;74730;43.858;18.424;2024-02-04T07:50:34;96144.16;;;3.34;70.59
84511;BME280;74730;43.858;18.424;2024-02-04T07:53:00;96148.19;;;3.46;69.62
84511;BME280;74730;43.858;18.424;2024-02-04T07:55:25;96148.78;;;3.60;69.25
84511;BME280;74730;43.858;18.424;2024-02-04T07:57:51;96156.06;;;3.74;68.80
84511;BME280;74730;43.858;18.424;2024-02-04T08:00:17;96144.53;;;3.89;68.26
84511;BME280;74730;43.858;18.424;2024-02-04T08:02:44;96153.41;;;4.04;67.71
84511;BME280;74730;43.858;18.424;2024-02-04T08:05:10;96159.75;;;4.19;66.98
84511;BME280;74730;43.858;18.424;2024-02-04T08:07:36;96159.22;;;4.35;66.16
84511;BME280;74730;43.858;18.424;2024-02-04T08:10:02;96154.22;;;4.53;65.71
84511;BME280;74730;43.858;18.424;2024-02-04T08:12:27;96157.50;;;4.82;65.09
84511;BME280;74730;43.858;18.424;2024-02-04T08:14:53;96163.34;;;5.21;63.72
84511;BME280;74730;43.858;18.424;2024-02-04T08:17:19;96167.00;;;5.73;62.61
84511;BME280;74730;43.858;18.424;2024-02-04T08:19:44;96156.59;;;6.37;61.92
84511;BME280;74730;43.858;18.424;2024-02-04T08:22:10;96158.53;;;7.04;58.81
84511;BME280;74730;43.858;18.424;2024-02-04T08:24:35;96155.91;;;7.56;57.96
84511;BME280;74730;43.858;18.424;2024-02-04T08:27:01;96148.31;;;8.05;56.23
84511;BME280;74730;43.858;18.424;2024-02-04T08:29:27;96141.81;;;8.59;53.28
84511;BME280;74730;43.858;18.424;2024-02-04T08:31:53;96139.34;;;8.98;52.40
84511;BME280;74730;43.858;18.424;2024-02-04T08:34:18;96137.75;;;9.52;50.78
84511;BME280;74730;43.858;18.424;2024-02-04T08:36:45;96135.38;;;9.73;49.82
84511;BME280;74730;43.858;18.424;2024-02-04T08:39:11;96136.06;;;9.98;49.23
84511;BME280;74730;43.858;18.424;2024-02-04T08:41:37;96135.66;;;10.09;48.66
84511;BME280;74730;43.858;18.424;2024-02-04T08:44:02;96137.56;;;10.15;49.06
84511;BME280;74730;43.858;18.424;2024-02-04T08:46:28;96132.06;;;10.26;48.48
84511;BME280;74730;43.858;18.424;2024-02-04T08:48:53;96135.91;;;10.30;47.37
84511;BME280;74730;43.858;18.424;2024-02-04T08:51:19;96130.78;;;10.45;46.75
84511;BME280;74730;43.858;18.424;2024-02-04T08:53:45;96133.06;;;10.62;47.41
84511;BME280;74730;43.858;18.424;2024-02-04T08:56:10;96137.03;;;10.88;46.33
84511;BME280;74730;43.858;18.424;2024-02-04T08:58:36;96130.91;;;11.03;45.59
84511;BME280;74730;43.858;18.424;2024-02-04T09:01:05;96134.75;;;11.07;45.57
84511;BME280;74730;43.858;18.424;2024-02-04T09:03:31;96131.34;;;11.07;45.94
84511;BME280;74730;43.858;18.424;2024-02-04T09:05:58;96129.22;;;11.25;45.65
84511;BME280;74730;43.858;18.424;2024-02-04T09:08:24;96120.13;;;11.29;45.77
84511;BME280;74730;43.858;18.424;2024-02-04T09:10:49;96131.91;;;11.17;45.66
84511;BME280;74730;43.858;18.424;2024-02-04T09:13:15;96141.78;;;11.28;45.32
84511;BME280;74730;43.858;18.424;2024-02-04T09:15:40;96135.28;;;11.32;45.21
84511;BME280;74730;43.858;18.424;2024-02-04T09:18:06;96124.22;;;11.38;44.91
84511;BME280;74730;43.858;18.424;2024-02-04T09:20:31;96128.31;;;11.47;44.98
84511;BME280;74730;43.858;18.424;2024-02-04T09:22:57;96120.81;;;11.52;44.37
84511;BME280;74730;43.858;18.424;2024-02-04T09:25:24;96119.56;;;11.63;44.11
84511;BME280;74730;43.858;18.424;2024-02-04T09:27:50;96122.44;;;11.53;44.13
84511;BME280;74730;43.858;18.424;2024-02-04T09:30:15;96120.97;;;11.66;44.14
84511;BME280;74730;43.858;18.424;2024-02-04T09:32:41;96118.50;;;11.87;44.12
84511;BME280;74730;43.858;18.424;2024-02-04T09:35:07;96118.50;;;11.87;43.67
84511;BME280;74730;43.858;18.424;2024-02-04T09:37:35;96113.31;;;11.87;44.31
84511;BME280;74730;43.858;18.424;2024-02-04T09:40:00;96112.13;;;11.89;44.42
84511;BME280;74730;43.858;18.424;2024-02-04T09:42:26;96111.75;;;11.92;44.38
84511;BME280;74730;43.858;18.424;2024-02-04T09:44:53;96102.22;;;11.93;44.67
84511;BME280;74730;43.858;18.424;2024-02-04T09:47:20;96100.75;;;12.05;44.26
84511;BME280;74730;43.858;18.424;2024-02-04T09:49:46;96104.31;;;12.25;43.86
84511;BME280;74730;43.858;18.424;2024-02-04T09:52:13;96094.97;;;12.46;43.16
84511;BME280;74730;43.858;18.424;2024-02-04T09:55:00;96094.25;;;12.58;42.71
84511;BME280;74730;43.858;18.424;2024-02-04T09:57:26;96076.53;;;12.62;42.79
84511;BME280;74730;43.858;18.424;2024-02-04T09:59:54;96082.94;;;12.66;42.30
84511;BME280;74730;43.858;18.424;2024-02-04T10:02:21;96073.47;;;12.52;42.69
84511;BME280;74730;43.858;18.424;2024-02-04T10:04:48;96073.13;;;12.33;43.67
84511;BME280;74730;43.858;18.424;2024-02-04T10:07:14;96065.72;;;12.30;43.59
84511;BME280;74730;43.858;18.424;2024-02-04T10:09:42;96063.88;;;12.24;43.72
84511;BME280;74730;43.858;18.424;2024-02-04T10:12:08;96052.34;;;12.27;43.57
84511;BME280;74730;43.858;18.424;2024-02-04T10:14:35;96044.47;;;12.14;43.84
84511;BME280;74730;43.858;18.424;2024-02-04T10:17:00;96043.53;;;12.21;44.32
84511;BME280;74730;43.858;18.424;2024-02-04T10:19:26;96034.41;;;12.25;44.16
84511;BME280;74730;43.858;18.424;2024-02-04T10:22:02;96053.19;;;12.34;43.27
84511;BME280;74730;43.858;18.424;2024-02-04T10:24:29;96048.63;;;12.15;43.85
84511;BME280;74730;43.858;18.424;2024-02-04T10:26:55;96045.03;;;12.09;43.86
84511;BME280;74730;43.858;18.424;2024-02-04T10:29:22;96028.63;;;12.02;44.42
84511;BME280;74730;43.858;18.424;2024-02-04T10:31:48;96025.47;;;11.85;44.59
84511;BME280;74730;43.858;18.424;2024-02-04T10:34:14;96028.63;;;11.66;44.73
84511;BME280;74730;43.858;18.424;2024-02-04T10:36:39;96020.06;;;11.66;45.39
84511;BME280;74730;43.858;18.424;2024-02-04T10:39:05;96019.38;;;11.57;45.47
84511;BME280;74730;43.858;18.424;2024-02-04T10:41:33;96017.59;;;11.57;45.17
84511;BME280;74730;43.858;18.424;2024-02-04T10:44:02;96013.28;;;11.65;43.96
84511;BME280;74730;43.858;18.424;2024-02-04T10:46:30;96007.84;;;11.74;44.67
84511;BME280;74730;43.858;18.424;2024-02-04T10:48:59;96009.44;;;11.75;44.05
84511;BME280;74730;43.858;18.424;2024-02-04T10:51:26;96000.16;;;11.81;44.28
84511;BME280;74730;43.858;18.424;2024-02-04T10:53:54;95993.13;;;11.75;44.38
84511;BME280;74730;43.858;18.424;2024-02-04T10:56:43;95989.66;;;11.68;45.09
84511;BME280;74730;43.858;18.424;2024-02-04T10:59:15;95993.94;;;11.61;45.76
84511;BME280;74730;43.858;18.424;2024-02-04T11:01:43;95997.19;;;11.48;46.15
84511;BME280;74730;43.858;18.424;2024-02-04T11:04:11;96002.91;;;11.43;45.06
84511;BME280;74730;43.858;18.424;2024-02-04T11:06:40;96005.69;;;11.42;45.43
84511;BME280;74730;43.858;18.424;2024-02-04T11:09:06;96006.13;;;11.45;45.31
84511;BME280;74730;43.858;18.424;2024-02-04T11:11:36;96001.41;;;11.49;45.01
84511;BME280;74730;43.858;18.424;2024-02-04T11:14:05;95997.03;;;11.49;45.63
84511;BME280;74730;43.858;18.424;2024-02-04T11:24:57;95956.28;;;11.73;44.99
84511;BME280;74730;43.858;18.424;2024-02-04T11:27:25;95956.34;;;11.79;44.57
84511;BME280;74730;43.858;18.424;2024-02-04T11:29:52;95959.00;;;11.86;44.91
84511;BME280;74730;43.858;18.424;2024-02-04T11:32:19;95956.41;;;11.86;45.10
84511;BME280;74730;43.858;18.424;2024-02-04T11:34:46;95955.94;;;11.82;44.59
84511;BME280;74730;43.858;18.424;2024-02-04T11:37:18;95952.22;;;11.85;44.65
84511;BME280;74730;43.858;18.424;2024-02-04T11:39:51;95949.47;;;11.93;44.84
84511;BME280;74730;43.858;18.424;2024-02-04T11:42:17;95946.16;;;11.99;44.90
84511;BME280;74730;43.858;18.424;2024-02-04T11:44:44;95939.66;;;12.10;44.76
84511;BME280;74730;43.858;18.424;2024-02-04T11:47:10;95945.75;;;12.23;44.56
84511;BME280;74730;43.858;18.424;2024-02-04T11:49:36;95944.78;;;12.31;44.06
84511;BME280;74730;43.858;18.424;2024-02-04T11:52:02;95945.63;;;12.38;43.68
84511;BME280;74730;43.858;18.424;2024-02-04T11:54:28;95941.53;;;12.50;43.85
84511;BME280;74730;43.858;18.424;2024-02-04T11:56:53;95941.78;;;12.62;43.97
84511;BME280;74730;43.858;18.424;2024-02-04T11:59:22;95944.25;;;12.76;43.35
84511;BME280;74730;43.858;18.424;2024-02-04T12:01:49;95935.94;;;12.87;43.01
84511;BME280;74730;43.858;18.424;2024-02-04T12:04:16;95934.34;;;12.86;43.06
84511;BME280;74730;43.858;18.424;2024-02-04T12:06:42;95922.38;;;12.85;43.40
84511;BME280;74730;43.858;18.424;2024-02-04T12:09:09;95920.19;;;12.89;43.18
84511;BME280;74730;43.858;18.424;2024-02-04T12:11:36;95920.00;;;12.91;42.84
84511;BME280;74730;43.858;18.424;2024-02-04T12:14:04;95930.19;;;12.92;42.70
84511;BME280;74730;43.858;18.424;2024-02-04T12:16:31;95926.97;;;12.90;42.76
84511;BME280;74730;43.858;18.424;2024-02-04T12:18:58;95929.03;;;13.01;42.11
84511;BME280;74730;43.858;18.424;2024-02-04T12:21:25;95923.44;;;13.04;41.90
84511;BME280;74730;43.858;18.424;2024-02-04T12:23:51;95923.47;;;13.11;42.40
84511;BME280;74730;43.858;18.424;2024-02-04T12:26:17;95907.34;;;13.22;42.10
84511;BME280;74730;43.858;18.424;2024-02-04T12:28:42;95896.81;;;13.37;41.81
84511;BME280;74730;43.858;18.424;2024-02-04T12:31:19;95880.28;;;13.51;41.76
84511;BME280;74730;43.858;18.424;2024-02-04T12:34:01;95883.88;;;13.56;40.98
84511;BME280;74730;43.858;18.424;2024-02-04T12:36:30;95882.47;;;13.60;40.72
84511;BME280;74730;43.858;18.424;2024-02-04T12:38:58;95882.06;;;13.63;41.32
84511;BME280;74730;43.858;18.424;2024-02-04T12:41:26;95882.06;;;13.63;40.76
84511;BME280;74730;43.858;18.424;2024-02-04T12:43:53;95884.06;;;13.61;40.94
84511;BME280;74730;43.858;18.424;2024-02-04T12:46:20;95888.25;;;13.62;41.25
84511;BME280;74730;43.858;18.424;2024-02-04T12:48:57;95886.66;;;13.61;41.05
84511;BME280;74730;43.858;18.424;2024-02-04T12:51:31;95878.28;;;13.66;40.67
84511;BME280;74730;43.858;18.424;2024-02-04T12:54:10;95880.50;;;13.69;40.96
84511;BME280;74730;43.858;18.424;2024-02-04T12:59:31;95865.28;;;13.86;40.48
84511;BME280;74730;43.858;18.424;2024-02-04T13:02:09;95861.69;;;13.93;40.06
84511;BME280;74730;43.858;18.424;2024-02-04T13:07:00;95845.13;;;14.01;40.04
84511;BME280;74730;43.858;18.424;2024-02-04T13:09:26;95847.94;;;13.93;40.37
84511;BME280;74730;43.858;18.424;2024-02-04T13:11:51;95836.13;;;13.90;40.50
84511;BME280;74730;43.858;18.424;2024-02-04T13:14:17;95840.13;;;13.93;40.22